Time,TemperatureF,DewpointF,PressureIn,WindDirection,WindDirectionDegrees,WindSpeedMPH,WindSpeedGustMPH,Humidity,HourlyPrecipIn,Conditions,Clouds,dailyrainin,SoftwareType,DateUTC
2013-02-09 00:01:00,11.0,9.0,30.35,North,0,0.0,0.0,91,0.00,,,0.00,,2013-02-09 06:01:00,
2013-02-09 00:11:00,11.0,9.0,30.35,North,0,0.0,0.0,91,0.00,,,0.00,,2013-02-09 06:11:00,
2013-02-09 00:21:00,9.0,7.0,30.35,North,0,0.0,0.0,90,0.00,,,0.00,,2013-02-09 06:21:00,
2013-02-09 00:31:00,9.0,7.0,30.35,North,0,0.0,0.0,90,0.00,,,0.00,,2013-02-09 06:31:00,
2013-02-09 00:42:00,9.0,7.0,30.35,North,0,0.0,0.0,90,0.00,,,0.00,,2013-02-09 06:42:00,
2013-02-09 00:52:00,8.0,6.0,30.35,North,0,0.0,0.0,91,0.00,,,0.00,,2013-02-09 06:52:00,
2013-02-09 01:01:00,8.0,6.0,30.35,North,0,0.0,0.0,90,0.00,,,0.00,,2013-02-09 07:01:00,
2013-02-09 01:11:00,8.0,6.0,30.35,North,0,0.0,0.0,90,0.00,,,0.00,,2013-02-09 07:11:00,
2013-02-09 01:21:00,6.0,4.0,30.35,North,0,0.0,0.0,90,0.00,,,0.00,,2013-02-09 07:21:00,
2013-02-09 01:31:00,6.0,4.0,30.34,North,0,0.0,0.0,90,0.00,,,0.00,,2013-02-09 07:31:00,
2013-02-09 01:51:00,6.0,4.0,30.35,North,0,0.0,0.0,90,0.00,,,0.00,,2013-02-09 07:51:00,
2013-02-09 02:01:00,6.0,3.0,30.35,North,0,0.0,0.0,89,0.00,,,0.00,,2013-02-09 08:01:00,
2013-02-09 02:21:00,4.0,2.0,30.36,North,0,0.0,0.0,89,0.00,,,0.00,,2013-02-09 08:21:00,
2013-02-09 02:31:00,4.0,2.0,30.36,North,0,0.0,0.0,89,0.00,,,0.00,,2013-02-09 08:31:00,
2013-02-09 03:03:00,4.0,2.0,30.35,North,0,0.0,0.0,89,0.00,,,0.00,,2013-02-09 09:03:00,
2013-02-09 03:21:00,3.0,1.0,30.35,North,0,0.0,0.0,89,0.00,,,0.00,,2013-02-09 09:21:00,
2013-02-09 03:52:00,2.0,-1.0,30.33,North,0,0.0,0.0,88,0.00,,,0.00,,2013-02-09 09:52:00,
2013-02-09 04:01:00,2.0,-1.0,30.34,North,0,0.0,0.0,88,0.00,,,0.00,,2013-02-09 10:01:00,
2013-02-09 04:21:00,1.0,-2.0,30.34,North,0,0.0,0.0,88,0.00,,,0.00,,2013-02-09 10:21:00,
2013-02-09 04:31:00,2.0,-1.0,30.34,North,0,0.0,0.0,88,0.00,,,0.00,,2013-02-09 10:31:00,
2013-02-09 04:51:00,1.0,-2.0,30.34,North,0,0.0,0.0,88,0.00,,,0.00,,2013-02-09 10:51:00,
2013-02-09 05:01:00,2.0,0.0,30.34,North,0,0.0,0.0,89,0.00,,,0.00,,2013-02-09 11:01:00,
2013-02-09 05:22:00,6.0,4.0,30.34,North,0,0.0,0.0,90,0.00,,,0.00,,2013-02-09 11:22:00,
2013-02-09 05:31:00,4.0,1.0,30.33,North,0,0.0,0.0,88,0.00,,,0.00,,2013-02-09 11:31:00,
2013-02-09 05:41:00,4.0,1.0,30.33,North,0,0.0,0.0,88,0.00,,,0.00,,2013-02-09 11:41:00,
2013-02-09 05:52:00,4.0,1.0,30.33,North,0,0.0,0.0,88,0.00,,,0.00,,2013-02-09 11:52:00,
2013-02-09 06:02:00,5.0,2.0,30.33,North,0,0.0,0.0,89,0.00,,,0.00,,2013-02-09 12:02:00,
2013-02-09 06:11:00,5.0,2.0,30.33,North,0,0.0,0.0,89,0.00,,,0.00,,2013-02-09 12:11:00,
2013-02-09 06:21:00,6.0,3.0,30.34,North,0,0.0,0.0,89,0.00,,,0.00,,2013-02-09 12:21:00,
2013-02-09 06:32:00,5.0,2.0,30.34,North,0,0.0,0.0,89,0.00,,,0.00,,2013-02-09 12:32:00,
2013-02-09 06:42:00,5.0,2.0,30.34,North,0,0.0,0.0,89,0.00,,,0.00,,2013-02-09 12:42:00,
2013-02-09 06:52:00,4.0,1.0,30.33,North,0,0.0,0.0,88,0.00,,,0.00,,2013-02-09 12:52:00,
2013-02-09 07:02:00,6.0,3.0,30.32,North,0,0.0,0.0,89,0.00,,,0.00,,2013-02-09 13:02:00,
2013-02-09 07:11:00,6.0,3.0,30.32,North,0,0.0,0.0,89,0.00,,,0.00,,2013-02-09 13:11:00,
2013-02-09 07:21:00,4.0,1.0,30.33,North,0,0.0,0.0,88,0.00,,,0.00,,2013-02-09 13:21:00,
2013-02-09 07:32:00,4.0,1.0,30.33,North,0,0.0,0.0,88,0.00,,,0.00,,2013-02-09 13:32:00,
2013-02-09 07:42:00,4.0,1.0,30.33,North,0,0.0,0.0,88,0.00,,,0.00,,2013-02-09 13:42:00,
2013-02-09 07:51:00,6.0,3.0,30.34,North,0,0.0,0.0,88,0.00,,,0.00,,2013-02-09 13:51:00,
2013-02-09 08:01:00,7.0,4.0,30.34,North,0,0.0,0.0,89,0.00,,,0.00,,2013-02-09 14:01:00,
2013-02-09 08:11:00,7.0,4.0,30.34,North,0,0.0,0.0,89,0.00,,,0.00,,2013-02-09 14:11:00,
2013-02-09 08:21:00,7.0,4.0,30.34,North,0,0.0,0.0,89,0.00,,,0.00,,2013-02-09 14:21:00,
2013-02-09 08:31:00,10.0,7.0,30.33,North,0,0.0,0.0,89,0.00,,,0.00,,2013-02-09 14:31:00,
2013-02-09 08:41:00,10.0,7.0,30.33,North,0,0.0,0.0,89,0.00,,,0.00,,2013-02-09 14:41:00,
2013-02-09 08:52:00,10.0,7.0,30.33,North,0,0.0,0.0,89,0.00,,,0.00,,2013-02-09 14:52:00,
2013-02-09 09:01:00,10.0,7.0,30.33,North,0,0.0,0.0,89,0.00,,,0.00,,2013-02-09 15:01:00,
2013-02-09 09:11:00,10.0,7.0,30.33,North,0,0.0,0.0,89,0.00,,,0.00,,2013-02-09 15:11:00,
2013-02-09 09:21:00,16.0,14.0,30.32,North,0,0.0,0.0,90,0.00,,,0.00,,2013-02-09 15:21:00,
2013-02-09 09:32:00,18.0,15.0,30.32,North,0,0.0,0.0,89,0.00,,,0.00,,2013-02-09 15:32:00,
2013-02-09 09:42:00,18.0,15.0,30.32,North,0,0.0,0.0,89,0.00,,,0.00,,2013-02-09 15:42:00,
2013-02-09 09:52:00,19.0,16.0,30.31,North,0,0.0,0.0,88,0.00,,,0.00,,2013-02-09 15:52:00,
2013-02-09 10:01:00,24.0,21.0,30.31,North,0,0.0,0.0,88,0.00,,,0.00,,2013-02-09 16:01:00,
2013-02-09 10:22:00,24.0,20.0,30.31,North,0,0.0,0.0,86,0.00,,,0.00,,2013-02-09 16:22:00,
2013-02-09 10:31:00,27.0,23.0,30.30,North,0,0.0,0.0,83,0.00,,,0.00,,2013-02-09 16:31:00,
2013-02-09 10:41:00,27.0,23.0,30.30,North,0,0.0,0.0,83,0.00,,,0.00,,2013-02-09 16:41:00,
2013-02-09 10:51:00,26.0,21.0,30.30,North,0,0.0,0.0,82,0.00,,,0.00,,2013-02-09 16:51:00,
2013-02-09 11:01:00,25.0,20.0,30.30,North,0,0.0,0.0,82,0.00,,,0.00,,2013-02-09 17:01:00,
2013-02-09 11:11:00,25.0,20.0,30.30,North,0,0.0,0.0,82,0.00,,,0.00,,2013-02-09 17:11:00,
2013-02-09 11:21:00,26.0,21.0,30.29,North,0,0.0,0.0,82,0.00,,,0.00,,2013-02-09 17:21:00,
2013-02-09 11:32:00,26.0,21.0,30.29,North,0,0.0,0.0,82,0.00,,,0.00,,2013-02-09 17:32:00,
2013-02-09 11:41:00,26.0,21.0,30.29,North,0,0.0,0.0,82,0.00,,,0.00,,2013-02-09 17:41:00,
2013-02-09 11:52:00,26.0,21.0,30.29,North,0,0.0,0.0,82,0.00,,,0.00,,2013-02-09 17:52:00,
2013-02-09 12:02:00,27.0,22.0,30.27,North,0,0.0,0.0,81,0.00,,,0.00,,2013-02-09 18:02:00,
2013-02-09 12:12:00,27.0,22.0,30.27,North,0,0.0,0.0,81,0.00,,,0.00,,2013-02-09 18:12:00,
2013-02-09 12:23:00,28.0,22.0,30.26,North,0,0.0,0.0,79,0.00,,,0.00,,2013-02-09 18:23:00,
2013-02-09 12:32:00,28.0,22.0,30.24,North,0,0.0,0.0,79,0.00,,,0.00,,2013-02-09 18:32:00,
2013-02-09 12:42:00,28.0,22.0,30.24,North,0,0.0,0.0,79,0.00,,,0.00,,2013-02-09 18:42:00,
2013-02-09 12:52:00,28.0,22.0,30.23,North,0,0.0,0.0,79,0.00,,,0.00,,2013-02-09 18:52:00,
2013-02-09 13:01:00,28.0,22.0,30.22,North,0,0.0,0.0,79,0.00,,,0.00,,2013-02-09 19:01:00,
2013-02-09 13:11:00,28.0,22.0,30.22,North,0,0.0,0.0,79,0.00,,,0.00,,2013-02-09 19:11:00,
2013-02-09 13:22:00,29.0,23.0,30.21,North,0,0.0,0.0,77,0.00,,,0.00,,2013-02-09 19:22:00,
2013-02-09 13:31:00,29.0,23.0,30.22,North,0,0.0,0.0,79,0.00,,,0.00,,2013-02-09 19:31:00,
2013-02-09 13:42:00,29.0,23.0,30.22,North,0,0.0,0.0,79,0.00,,,0.00,,2013-02-09 19:42:00,
2013-02-09 13:52:00,30.0,24.0,30.22,North,0,0.0,0.0,78,0.00,,,0.00,,2013-02-09 19:52:00,
2013-02-09 14:01:00,30.0,24.0,30.22,North,0,0.0,0.0,78,0.00,,,0.00,,2013-02-09 20:01:00,
2013-02-09 14:11:00,30.0,24.0,30.22,North,0,0.0,0.0,78,0.00,,,0.00,,2013-02-09 20:11:00,
2013-02-09 14:21:00,29.0,23.0,30.21,North,0,0.0,0.0,78,0.00,,,0.00,,2013-02-09 20:21:00,
2013-02-09 14:31:00,30.0,24.0,30.20,North,0,0.0,0.0,78,0.00,,,0.00,,2013-02-09 20:31:00,
2013-02-09 14:42:00,30.0,24.0,30.20,North,0,0.0,0.0,78,0.00,,,0.00,,2013-02-09 20:42:00,
2013-02-09 14:52:00,30.0,24.0,30.20,North,0,0.0,0.0,78,0.00,,,0.00,,2013-02-09 20:52:00,
2013-02-09 15:02:00,29.0,23.0,30.20,North,0,0.0,0.0,78,0.00,,,0.00,,2013-02-09 21:02:00,
2013-02-09 15:11:00,29.0,23.0,30.20,North,0,0.0,0.0,78,0.00,,,0.00,,2013-02-09 21:11:00,
2013-02-09 15:21:00,29.0,24.0,30.20,North,0,0.0,0.0,80,0.00,,,0.00,,2013-02-09 21:21:00,
2013-02-09 15:32:00,29.0,24.0,30.19,North,0,0.0,0.0,81,0.00,,,0.00,,2013-02-09 21:32:00,
2013-02-09 15:41:00,29.0,24.0,30.19,North,0,0.0,0.0,81,0.00,,,0.00,,2013-02-09 21:41:00,
2013-02-09 15:52:00,30.0,25.0,30.19,North,0,0.0,0.0,80,0.00,,,0.00,,2013-02-09 21:52:00,
2013-02-09 16:01:00,30.0,25.0,30.19,North,0,0.0,0.0,80,0.00,,,0.00,,2013-02-09 22:01:00,
2013-02-09 16:11:00,30.0,25.0,30.19,North,0,0.0,0.0,80,0.00,,,0.00,,2013-02-09 22:11:00,
2013-02-09 16:21:00,30.0,25.0,30.18,North,0,0.0,0.0,81,0.00,,,0.00,,2013-02-09 22:21:00,
2013-02-09 16:32:00,30.0,25.0,30.17,North,0,0.0,0.0,81,0.00,,,0.00,,2013-02-09 22:32:00,
2013-02-09 16:42:00,30.0,25.0,30.17,North,0,0.0,0.0,81,0.00,,,0.00,,2013-02-09 22:42:00,
2013-02-09 16:51:00,29.0,24.0,30.16,North,0,0.0,0.0,82,0.00,,,0.00,,2013-02-09 22:51:00,
2013-02-09 17:01:00,29.0,25.0,30.16,North,0,0.0,0.0,83,0.00,,,0.00,,2013-02-09 23:01:00,
2013-02-09 17:11:00,29.0,25.0,30.16,North,0,0.0,0.0,83,0.00,,,0.00,,2013-02-09 23:11:00,
2013-02-09 17:21:00,29.0,25.0,30.16,North,0,0.0,0.0,83,0.00,,,0.00,,2013-02-09 23:21:00,
2013-02-09 17:31:00,28.0,24.0,30.16,North,0,0.0,0.0,83,0.00,,,0.00,,2013-02-09 23:31:00,
2013-02-09 17:42:00,28.0,24.0,30.16,North,0,0.0,0.0,83,0.00,,,0.00,,2013-02-09 23:42:00,
2013-02-09 17:52:00,27.0,23.0,30.15,North,0,0.0,0.0,86,0.00,,,0.00,,2013-02-09 23:52:00,
2013-02-09 18:02:00,27.0,24.0,30.14,North,0,0.0,0.0,87,0.00,,,0.00,,2013-02-10 00:02:00,
2013-02-09 18:11:00,27.0,24.0,30.14,North,0,0.0,0.0,87,0.00,,,0.00,,2013-02-10 00:11:00,
2013-02-09 18:21:00,27.0,24.0,30.15,North,0,0.0,0.0,87,0.00,,,0.00,,2013-02-10 00:21:00,
2013-02-09 18:32:00,26.0,23.0,30.14,North,0,0.0,0.0,88,0.00,,,0.00,,2013-02-10 00:32:00,
2013-02-09 18:42:00,26.0,23.0,30.14,North,0,0.0,0.0,88,0.00,,,0.00,,2013-02-10 00:42:00,
2013-02-09 18:51:00,26.0,23.0,30.14,North,0,0.0,0.0,90,0.00,,,0.00,,2013-02-10 00:51:00,
2013-02-09 19:01:00,25.0,22.0,30.14,North,0,0.0,0.0,90,0.00,,,0.00,,2013-02-10 01:01:00,
2013-02-09 19:12:00,25.0,22.0,30.14,North,0,0.0,0.0,90,0.00,,,0.00,,2013-02-10 01:12:00,
2013-02-09 19:21:00,25.0,22.0,30.14,North,0,0.0,0.0,90,0.00,,,0.00,,2013-02-10 01:21:00,
2013-02-09 19:31:00,25.0,22.0,30.14,North,0,0.0,0.0,90,0.00,,,0.00,,2013-02-10 01:31:00,
2013-02-09 19:42:00,25.0,22.0,30.14,North,0,0.0,0.0,90,0.00,,,0.00,,2013-02-10 01:42:00,
2013-02-09 19:51:00,23.0,21.0,30.12,North,0,0.0,0.0,92,0.00,,,0.00,,2013-02-10 01:51:00,
2013-02-09 20:01:00,21.0,19.0,30.12,North,0,0.0,0.0,92,0.00,,,0.00,,2013-02-10 02:01:00,
2013-02-09 20:11:00,21.0,19.0,30.12,North,0,0.0,0.0,92,0.00,,,0.00,,2013-02-10 02:11:00,
2013-02-09 20:22:00,21.0,19.0,30.12,North,0,0.0,0.0,93,0.00,,,0.00,,2013-02-10 02:22:00,
2013-02-09 20:31:00,20.0,18.0,30.11,North,0,0.0,0.0,93,0.00,,,0.00,,2013-02-10 02:31:00,
2013-02-09 20:42:00,20.0,18.0,30.11,North,0,0.0,0.0,93,0.00,,,0.00,,2013-02-10 02:42:00,
2013-02-09 20:52:00,19.0,17.0,30.11,North,0,0.0,0.0,93,0.00,,,0.00,,2013-02-10 02:52:00,
2013-02-09 21:01:00,19.0,18.0,30.11,North,0,0.0,0.0,94,0.00,,,0.00,,2013-02-10 03:01:00,
2013-02-09 21:11:00,19.0,18.0,30.11,North,0,0.0,0.0,94,0.00,,,0.00,,2013-02-10 03:11:00,
2013-02-09 21:21:00,18.0,16.0,30.11,North,0,0.0,0.0,93,0.00,,,0.00,,2013-02-10 03:21:00,
2013-02-09 21:32:00,18.0,17.0,30.11,North,0,0.0,0.0,94,0.00,,,0.00,,2013-02-10 03:32:00,
2013-02-09 21:41:00,18.0,17.0,30.11,North,0,0.0,0.0,94,0.00,,,0.00,,2013-02-10 03:41:00,
2013-02-09 21:52:00,18.0,16.0,30.11,North,0,0.0,0.0,93,0.00,,,0.00,,2013-02-10 03:52:00,
2013-02-09 22:01:00,17.0,15.0,30.10,North,0,0.0,0.0,93,0.00,,,0.00,,2013-02-10 04:01:00,
2013-02-09 22:11:00,17.0,15.0,30.10,North,0,0.0,0.0,93,0.00,,,0.00,,2013-02-10 04:11:00,
2013-02-09 22:21:00,17.0,15.0,30.10,North,0,0.0,0.0,93,0.00,,,0.00,,2013-02-10 04:21:00,
2013-02-09 22:32:00,16.0,14.0,30.09,North,0,0.0,0.0,93,0.00,,,0.00,,2013-02-10 04:32:00,
2013-02-09 22:41:00,16.0,14.0,30.09,North,0,0.0,0.0,93,0.00,,,0.00,,2013-02-10 04:41:00,
2013-02-09 22:51:00,16.0,14.0,30.08,North,0,0.0,0.0,93,0.00,,,0.00,,2013-02-10 04:51:00,
2013-02-09 23:01:00,15.0,13.0,30.09,North,0,0.0,0.0,92,0.00,,,0.00,,2013-02-10 05:01:00,
2013-02-09 23:11:00,15.0,13.0,30.09,North,0,0.0,0.0,92,0.00,,,0.00,,2013-02-10 05:11:00,
2013-02-09 23:22:00,15.0,13.0,30.08,North,0,0.0,0.0,93,0.00,,,0.00,,2013-02-10 05:22:00,
2013-02-09 23:31:00,15.0,13.0,30.07,North,0,0.0,0.0,93,0.00,,,0.00,,2013-02-10 05:31:00,
2013-02-09 23:41:00,15.0,13.0,30.07,North,0,0.0,0.0,93,0.00,,,0.00,,2013-02-10 05:41:00,
2013-02-09 23:52:00,15.0,13.0,30.07,North,0,0.0,0.0,93,0.00,,,0.00,,2013-02-10 05:52:00,